Time;durP1;ratioP1;P1;durP2;ratioP2;P2;SDS_P1;SDS_P2;PMS_P1;PMS_P2;Temp;Humidity;BMP_temperature;BMP_pressure;BME280_temperature;BME280_humidity;BME280_pressure;Samples;Min_cycle;Max_cycle;Signal;HPM_P1;HPM_P2
2022/09/03 00:00:26;;;;;;;1.10;1.00;;;14.10;75.30;;;;;;606848;235;26572;-66
2022/09/03 00:02:58;;;;;;;0.90;0.90;;;14.00;72.50;;;;;;608144;234;26647;-66
2022/09/03 00:05:25;;;;;;;0.80;0.80;;;14.00;72.50;;;;;;610468;235;26605;-66
2022/09/03 00:08:01;;;;;;;1.12;1.10;;;14.00;71.20;;;;;;605349;235;26577;-66
2022/09/03 00:10:28;;;;;;;0.90;0.80;;;14.00;71.20;;;;;;609130;235;26661;-67
2022/09/03 00:12:55;;;;;;;0.90;0.90;;;14.00;74.40;;;;;;606677;235;26635;-66
2022/09/03 00:15:22;;;;;;;0.70;0.70;;;13.90;75.50;;;;;;610009;235;26863;-66
2022/09/03 00:18:04;;;;;;;0.70;0.70;;;13.90;72.80;;;;;;605565;235;26583;-66
2022/09/03 00:20:33;;;;;;;0.88;0.88;;;13.90;72.90;;;;;;610956;235;26600;-66
2022/09/03 00:23:01;;;;;;;0.85;0.85;;;13.90;74.00;;;;;;605973;236;26622;-66
2022/09/03 00:25:28;;;;;;;0.93;0.93;;;13.90;73.10;;;;;;610709;235;27124;-66
2022/09/03 00:27:56;;;;;;;1.05;0.90;;;13.80;75.20;;;;;;611129;235;26602;-66
2022/09/03 00:30:24;;;;;;;0.95;0.95;;;13.80;74.90;;;;;;607349;235;26808;-66
2022/09/03 00:32:54;;;;;;;2.65;0.90;;;13.80;76.10;;;;;;608493;235;26603;-66
2022/09/03 00:35:23;;;;;;;1.80;1.00;;;13.70;75.40;;;;;;609982;235;26627;-66
2022/09/03 00:37:51;;;;;;;0.90;0.90;;;13.70;75.50;;;;;;605281;235;26586;-66
2022/09/03 00:40:40;;;;;;;0.90;0.90;;;13.70;76.70;;;;;;609860;235;26626;-66
2022/09/03 00:43:07;;;;;;;0.70;0.70;;;13.70;73.90;;;;;;608194;235;26882;-66
2022/09/03 00:45:50;;;;;;;1.58;0.80;;;13.70;75.10;;;;;;605856;235;26597;-67
2022/09/03 00:48:21;;;;;;;2.95;1.10;;;13.60;75.30;;;;;;603388;234;26660;-67
2022/09/03 00:51:08;;;;;;;0.80;0.80;;;13.60;76.00;;;;;;607526;234;26660;-66
2022/09/03 00:53:55;;;;;;;0.98;0.90;;;13.60;75.90;;;;;;604929;235;27273;-67
2022/09/03 00:56:45;;;;;;;0.93;0.93;;;13.50;76.50;;;;;;608871;235;26631;-67
2022/09/03 00:59:17;;;;;;;1.95;0.70;;;13.50;74.90;;;;;;600553;235;26695;-66
2022/09/03 01:01:45;;;;;;;0.80;0.80;;;13.50;75.00;;;;;;610085;234;26606;-66
2022/09/03 01:04:29;;;;;;;0.70;0.70;;;13.50;80.40;;;;;;610999;231;26592;-66
2022/09/03 01:07:17;;;;;;;1.95;1.00;;;13.40;80.30;;;;;;610204;235;26852;-66
2022/09/03 01:09:47;;;;;;;1.10;1.00;;;13.40;78.10;;;;;;605651;234;26583;-67
2022/09/03 01:12:33;;;;;;;0.80;0.80;;;13.40;75.60;;;;;;610081;235;27509;-67
2022/09/03 01:15:06;;;;;;;2.30;1.00;;;13.40;79.30;;;;;;608152;235;26863;-67
2022/09/03 01:17:34;;;;;;;1.05;1.05;;;13.40;76.80;;;;;;605168;236;26589;-67
2022/09/03 01:20:09;;;;;;;0.82;0.80;;;13.30;78.30;;;;;;609761;235;26583;-66
2022/09/03 01:22:43;;;;;;;1.45;1.00;;;13.30;80.10;;;;;;608152;235;26707;-66
2022/09/03 01:25:12;;;;;;;1.20;1.10;;;13.20;79.90;;;;;;606212;235;26865;-66
2022/09/03 01:27:42;;;;;;;0.75;0.75;;;13.20;81.40;;;;;;605495;235;26574;-66
2022/09/03 01:30:09;;;;;;;0.60;0.60;;;13.20;76.80;;;;;;609970;235;26861;-66
2022/09/03 01:33:03;;;;;;;0.75;0.75;;;13.30;78.30;;;;;;607154;236;27031;-67
2022/09/03 01:35:35;;;;;;;0.90;0.90;;;13.30;77.90;;;;;;597767;232;26614;-67
2022/09/03 01:38:24;;;;;;;0.65;0.65;;;13.30;78.00;;;;;;612248;234;27198;-67
2022/09/03 01:40:55;;;;;;;0.88;0.88;;;13.30;76.30;;;;;;609052;235;26658;-67
2022/09/03 01:43:39;;;;;;;1.73;0.70;;;13.20;78.00;;;;;;605601;235;26589;-67
2022/09/03 01:46:12;;;;;;;0.80;0.80;;;13.20;76.60;;;;;;609305;236;26563;-67
2022/09/03 01:48:42;;;;;;;1.00;0.88;;;13.20;78.30;;;;;;607000;236;26586;-66
2022/09/03 01:51:16;;;;;;;1.00;1.00;;;13.20;78.50;;;;;;609223;235;27038;-66
2022/09/03 01:54:04;;;;;;;1.67;0.90;;;13.20;78.00;;;;;;611537;235;26626;-66
2022/09/03 01:57:06;;;;;;;0.90;0.88;;;13.20;77.90;;;;;;597842;234;26654;-66
2022/09/03 01:59:37;;;;;;;0.90;0.90;;;13.30;81.90;;;;;;586965;237;26667;-66
2022/09/03 02:02:06;;;;;;;0.88;0.88;;;13.30;81.70;;;;;;612933;234;27170;-67
2022/09/03 02:04:33;;;;;;;0.90;0.90;;;13.30;76.10;;;;;;608163;234;26597;-67
2022/09/03 02:07:00;;;;;;;0.95;0.95;;;13.20;79.70;;;;;;607990;234;26976;-67
2022/09/03 02:09:31;;;;;;;1.02;0.85;;;13.20;79.40;;;;;;610798;235;26636;-67
2022/09/03 02:12:12;;;;;;;0.73;0.73;;;13.20;77.80;;;;;;608765;234;26621;-66
2022/09/03 02:14:40;;;;;;;0.77;0.77;;;13.20;80.90;;;;;;605655;236;26600;-66
2022/09/03 02:17:08;;;;;;;0.80;0.80;;;13.10;80.90;;;;;;610957;231;26632;-66
2022/09/03 02:19:36;;;;;;;0.60;0.60;;;13.10;78.70;;;;;;607261;235;26938;-66
2022/09/03 02:22:03;;;;;;;0.80;0.70;;;13.10;81.30;;;;;;611015;234;26601;-66
2022/09/03 02:24:30;;;;;;;1.00;0.90;;;13.10;79.20;;;;;;606035;235;26830;-66
2022/09/03 02:26:57;;;;;;;0.80;0.80;;;13.10;78.10;;;;;;611117;235;26644;-66
2022/09/03 02:29:24;;;;;;;0.70;0.70;;;13.10;81.10;;;;;;606366;236;26808;-66
2022/09/03 02:31:51;;;;;;;0.98;0.98;;;13.10;78.60;;;;;;608069;235;26651;-66
2022/09/03 02:34:19;;;;;;;0.88;0.85;;;13.00;80.90;;;;;;609219;234;27214;-66
2022/09/03 02:36:46;;;;;;;0.82;0.82;;;13.00;79.40;;;;;;606548;234;26630;-66
2022/09/03 02:39:13;;;;;;;0.95;0.93;;;13.00;77.60;;;;;;605620;235;26889;-66
2022/09/03 02:41:41;;;;;;;0.80;0.80;;;12.90;83.30;;;;;;609619;234;26630;-66
2022/09/03 02:44:09;;;;;;;0.85;0.85;;;12.90;83.20;;;;;;607739;236;26613;-66
2022/09/03 02:46:38;;;;;;;1.05;1.00;;;13.00;79.90;;;;;;605967;235;26599;-66
2022/09/03 02:49:05;;;;;;;0.95;0.70;;;13.00;83.00;;;;;;611068;235;26655;-66
2022/09/03 02:51:34;;;;;;;0.80;0.80;;;13.00;81.60;;;;;;606846;235;27180;-66
2022/09/03 02:54:01;;;;;;;0.93;0.70;;;13.00;81.40;;;;;;607982;235;26650;-66
2022/09/03 02:56:28;;;;;;;0.90;0.90;;;13.00;79.20;;;;;;606985;234;26744;-66
2022/09/03 02:58:56;;;;;;;0.82;0.82;;;12.90;80.80;;;;;;608519;235;26651;-66
2022/09/03 03:01:24;;;;;;;0.80;0.80;;;12.90;82.80;;;;;;611148;235;26658;-66
2022/09/03 03:03:52;;;;;;;0.80;0.80;;;12.90;81.00;;;;;;608045;235;26664;-66
2022/09/03 03:06:20;;;;;;;0.70;0.70;;;12.80;83.30;;;;;;606144;235;26629;-66
2022/09/03 03:08:47;;;;;;;0.88;0.88;;;12.80;83.30;;;;;;605660;235;26580;-66
2022/09/03 03:11:17;;;;;;;0.88;0.88;;;12.80;80.80;;;;;;608528;234;26666;-66
2022/09/03 03:13:41;;;;;;;1.17;1.00;;;12.80;81.70;;;;;;611255;234;26833;-66
2022/09/03 03:16:08;;;;;;;2.40;1.10;;;12.80;80.40;;;;;;606982;234;26634;-66
2022/09/03 03:18:36;;;;;;;1.02;0.95;;;12.70;79.30;;;;;;605043;235;26638;-66
2022/09/03 03:21:05;;;;;;;0.88;0.88;;;12.70;82.30;;;;;;599903;235;26899;-66
2022/09/03 03:23:32;;;;;;;0.82;0.82;;;12.80;80.80;;;;;;609972;235;26856;-66
2022/09/03 03:26:00;;;;;;;1.02;0.90;;;12.80;82.40;;;;;;609052;234;26597;-66
2022/09/03 03:28:27;;;;;;;0.90;0.90;;;12.70;83.80;;;;;;609144;235;26602;-66
2022/09/03 03:30:55;;;;;;;0.85;0.80;;;12.80;80.90;;;;;;609285;235;26652;-66
2022/09/03 03:33:22;;;;;;;0.90;0.90;;;12.70;83.00;;;;;;608745;235;26609;-66
2022/09/03 03:35:49;;;;;;;0.88;0.88;;;12.70;82.10;;;;;;609293;235;26828;-66
2022/09/03 03:38:16;;;;;;;0.80;0.80;;;12.70;83.50;;;;;;607224;235;26594;-66
2022/09/03 03:40:43;;;;;;;0.90;0.90;;;12.60;83.50;;;;;;607619;235;26875;-66
2022/09/03 03:43:11;;;;;;;0.90;0.88;;;12.70;83.10;;;;;;608851;235;26624;-66
2022/09/03 03:45:38;;;;;;;0.90;0.90;;;12.70;79.90;;;;;;608353;234;26860;-66
2022/09/03 03:48:05;;;;;;;1.30;0.90;;;12.70;85.20;;;;;;606756;235;26630;-66
2022/09/03 03:50:32;;;;;;;1.05;0.80;;;12.70;81.50;;;;;;608991;235;26884;-66
2022/09/03 03:53:00;;;;;;;1.17;0.95;;;12.70;83.20;;;;;;607201;234;26650;-66
2022/09/03 03:55:27;;;;;;;0.80;0.80;;;12.70;82.30;;;;;;607736;235;26868;-66
2022/09/03 03:57:55;;;;;;;1.10;1.00;;;12.80;83.70;;;;;;607468;234;26643;-66
2022/09/03 04:00:23;;;;;;;0.77;0.77;;;12.80;84.90;;;;;;608831;235;26628;-66
2022/09/03 04:02:51;;;;;;;0.70;0.70;;;12.90;82.90;;;;;;607397;235;26583;-66
2022/09/03 04:05:19;;;;;;;0.80;0.80;;;12.90;81.40;;;;;;608052;234;26641;-66
2022/09/03 04:07:46;;;;;;;0.88;0.88;;;12.90;81.50;;;;;;608237;235;26631;-66
2022/09/03 04:10:14;;;;;;;0.88;0.88;;;13.00;87.00;;;;;;607777;235;26654;-66
2022/09/03 04:12:42;;;;;;;1.45;0.95;;;13.00;84.50;;;;;;606828;235;26668;-66
2022/09/03 04:15:10;;;;;;;0.80;0.80;;;13.00;81.80;;;;;;607981;235;26686;-66
2022/09/03 04:17:38;;;;;;;0.70;0.70;;;13.00;81.70;;;;;;608706;235;26998;-66
2022/09/03 04:20:05;;;;;;;0.88;0.85;;;13.00;84.60;;;;;;610258;233;26634;-66
2022/09/03 04:22:33;;;;;;;1.00;1.00;;;13.10;81.90;;;;;;608598;234;26700;-66
2022/09/03 04:25:01;;;;;;;0.80;0.80;;;13.00;82.90;;;;;;609030;234;26970;-66
2022/09/03 04:27:30;;;;;;;0.95;0.95;;;13.00;84.80;;;;;;608815;234;26859;-66
2022/09/03 04:29:56;;;;;;;1.98;1.05;;;13.00;84.90;;;;;;608845;234;27399;-66
2022/09/03 04:34:57;;;;;;;1.23;1.12;;;13.00;84.90;;;;;;608729;234;26658;-66
2022/09/03 04:37:24;;;;;;;0.90;0.90;;;13.00;84.80;;;;;;608266;233;26637;-66
2022/09/03 04:39:53;;;;;;;0.90;0.90;;;13.00;84.50;;;;;;610401;235;26633;-66
2022/09/03 04:42:19;;;;;;;1.00;1.00;;;13.00;87.10;;;;;;607060;235;26986;-66
2022/09/03 04:44:46;;;;;;;0.90;0.90;;;13.10;84.60;;;;;;610389;235;26630;-66
2022/09/03 04:47:15;;;;;;;1.00;1.00;;;13.00;85.20;;;;;;606107;235;26572;-66
2022/09/03 04:49:41;;;;;;;0.88;0.88;;;13.00;81.90;;;;;;609442;235;26858;-66
2022/09/03 04:52:08;;;;;;;2.42;1.00;;;13.10;87.00;;;;;;608919;235;26662;-66
2022/09/03 04:54:36;;;;;;;0.95;0.95;;;13.10;82.00;;;;;;608125;235;26659;-66
2022/09/03 04:57:03;;;;;;;0.88;0.88;;;13.10;82.00;;;;;;610795;235;26656;-66
2022/09/03 04:59:31;;;;;;;1.12;1.00;;;13.20;86.40;;;;;;608679;232;26859;-66
2022/09/03 05:01:58;;;;;;;0.88;0.88;;;13.20;84.90;;;;;;607384;235;26668;-66
2022/09/03 05:04:25;;;;;;;1.27;1.17;;;13.20;84.10;;;;;;609483;235;26862;-66
2022/09/03 05:06:52;;;;;;;0.93;0.93;;;13.30;83.20;;;;;;605476;234;26585;-66
2022/09/03 05:09:20;;;;;;;2.12;0.90;;;13.30;85.60;;;;;;608872;235;26637;-66
2022/09/03 05:11:47;;;;;;;0.82;0.82;;;13.30;84.40;;;;;;606418;236;26604;-66
2022/09/03 05:14:14;;;;;;;0.82;0.82;;;13.30;85.40;;;;;;606363;236;26610;-64
2022/09/03 05:16:42;;;;;;;1.05;1.00;;;13.30;82.90;;;;;;610483;235;26651;-64
2022/09/03 05:19:09;;;;;;;0.98;0.88;;;13.20;83.40;;;;;;605859;235;26813;-65
2022/09/03 05:21:36;;;;;;;1.42;1.12;;;13.20;85.20;;;;;;607751;235;26709;-66
2022/09/03 05:24:03;;;;;;;1.20;1.10;;;13.20;87.30;;;;;;606694;232;26866;-66
2022/09/03 05:26:31;;;;;;;1.17;1.08;;;13.20;87.30;;;;;;609722;235;26636;-66
2022/09/03 05:28:58;;;;;;;1.10;1.10;;;13.20;84.60;;;;;;610003;235;26824;-66
2022/09/03 05:31:26;;;;;;;1.52;1.00;;;13.20;86.30;;;;;;610767;233;26653;-66
2022/09/03 05:33:53;;;;;;;0.98;0.98;;;13.30;88.30;;;;;;608852;234;26602;-66
2022/09/03 05:36:21;;;;;;;2.37;0.93;;;13.30;88.60;;;;;;612064;232;26594;-66
2022/09/03 05:38:48;;;;;;;0.93;0.93;;;13.30;88.00;;;;;;606504;234;26599;-66
2022/09/03 05:41:15;;;;;;;0.93;0.93;;;13.40;85.30;;;;;;609452;234;26621;-66
2022/09/03 05:43:43;;;;;;;0.90;0.90;;;13.40;89.30;;;;;;605568;235;27268;-66
2022/09/03 05:46:11;;;;;;;0.93;0.93;;;13.50;87.50;;;;;;610007;230;26629;-66
2022/09/03 05:48:38;;;;;;;1.23;1.10;;;13.50;87.60;;;;;;606527;234;26855;-66
2022/09/03 05:51:08;;;;;;;0.98;0.90;;;13.60;89.30;;;;;;609665;235;26652;-66
2022/09/03 05:53:35;;;;;;;2.47;1.00;;;13.60;85.80;;;;;;607886;235;26597;-66
2022/09/03 05:56:05;;;;;;;1.25;1.15;;;13.50;86.70;;;;;;611058;235;26589;-66
2022/09/03 05:58:33;;;;;;;0.88;0.88;;;13.40;86.50;;;;;;610785;234;26664;-66
2022/09/03 06:01:06;;;;;;;1.20;1.17;;;13.40;88.10;;;;;;606536;235;26590;-66
2022/09/03 06:03:34;;;;;;;1.20;1.10;;;13.40;88.00;;;;;;608955;235;26591;-66
2022/09/03 06:06:01;;;;;;;1.65;1.25;;;13.40;88.40;;;;;;609042;231;26829;-66
2022/09/03 06:08:28;;;;;;;1.10;1.02;;;13.50;88.10;;;;;;606025;235;26554;-66
2022/09/03 06:10:58;;;;;;;0.90;0.90;;;13.60;87.70;;;;;;609001;234;27054;-65
2022/09/03 06:13:24;;;;;;;2.05;1.00;;;13.80;88.70;;;;;;610155;235;26800;-65
2022/09/03 06:15:55;;;;;;;1.00;1.00;;;14.00;86.60;;;;;;608359;235;26635;-64
2022/09/03 06:18:23;;;;;;;1.50;1.02;;;14.60;85.30;;;;;;609544;235;26651;-66
2022/09/03 06:20:54;;;;;;;2.15;1.00;;;14.80;85.70;;;;;;607067;235;26662;-66
2022/09/03 06:23:23;;;;;;;0.90;0.90;;;14.90;84.70;;;;;;608021;234;26651;-65
2022/09/03 06:26:00;;;;;;;2.95;1.20;;;15.00;84.10;;;;;;609942;234;26667;-65
2022/09/03 06:28:27;;;;;;;1.08;1.08;;;15.10;84.60;;;;;;610647;235;26672;-65
2022/09/03 06:30:58;;;;;;;0.65;0.65;;;15.20;81.80;;;;;;608999;235;26589;-65
2022/09/03 06:33:25;;;;;;;0.90;0.90;;;15.20;81.80;;;;;;608481;236;26578;-65
2022/09/03 06:35:56;;;;;;;1.00;0.95;;;15.60;84.10;;;;;;607252;235;26631;-65
2022/09/03 06:38:22;;;;;;;0.90;0.90;;;15.60;84.00;;;;;;606177;235;26827;-65
2022/09/03 06:40:52;;;;;;;1.15;0.80;;;15.60;79.70;;;;;;611540;235;26670;-65
2022/09/03 06:43:20;;;;;;;1.02;0.93;;;15.60;82.90;;;;;;613455;232;26633;-65
2022/09/03 06:45:54;;;;;;;1.30;1.20;;;15.60;78.80;;;;;;610156;233;26657;-65
2022/09/03 06:48:22;;;;;;;1.45;1.00;;;15.90;82.00;;;;;;605489;234;26608;-65
2022/09/03 06:50:57;;;;;;;1.08;0.98;;;16.00;79.30;;;;;;606788;234;26976;-65
2022/09/03 06:53:26;;;;;;;0.82;0.82;;;16.00;79.20;;;;;;609974;235;26845;-65
2022/09/03 06:55:57;;;;;;;1.05;0.95;;;16.10;79.70;;;;;;612259;235;26657;-64
2022/09/03 06:58:25;;;;;;;1.62;1.00;;;16.10;79.70;;;;;;609693;235;26910;-64
2022/09/03 07:00:52;;;;;;;1.17;1.05;;;16.00;79.60;;;;;;609919;235;26698;-65
2022/09/03 07:03:20;;;;;;;0.90;0.90;;;16.00;79.60;;;;;;611669;235;26591;-65
2022/09/03 07:05:47;;;;;;;0.95;0.90;;;16.00;82.20;;;;;;608005;235;26646;-65
2022/09/03 07:08:14;;;;;;;1.00;1.00;;;16.30;77.80;;;;;;607742;234;26638;-64
2022/09/03 07:10:42;;;;;;;5.07;1.60;;;16.40;78.90;;;;;;605374;235;26586;-65
2022/09/03 07:13:08;;;;;;;38.78;8.00;;;16.70;76.00;;;;;;609491;235;26839;-63
2022/09/03 07:15:37;;;;;;;8.50;2.87;;;16.80;81.10;;;;;;606416;235;26600;-64
2022/09/03 07:18:04;;;;;;;0.88;0.88;;;16.80;81.30;;;;;;607681;234;26637;-63
2022/09/03 07:20:31;;;;;;;28.65;5.55;;;16.90;79.30;;;;;;604326;237;26579;-64
2022/09/03 07:22:58;;;;;;;10.90;3.62;;;16.90;75.70;;;;;;609207;235;26638;-63
2022/09/03 07:25:26;;;;;;;4.03;1.73;;;16.80;77.10;;;;;;609030;235;26588;-64
2022/09/03 07:27:53;;;;;;;6.90;2.22;;;16.80;77.40;;;;;;611087;235;26658;-65
2022/09/03 07:30:20;;;;;;;2.12;1.23;;;16.90;75.60;;;;;;610787;234;27372;-65
2022/09/03 07:32:49;;;;;;;0.80;0.80;;;17.00;76.00;;;;;;607112;235;26685;-65
2022/09/03 07:35:14;;;;;;;12.80;3.35;;;17.00;75.40;;;;;;608488;235;26607;-65
2022/09/03 07:37:41;;;;;;;2.15;1.10;;;17.20;77.40;;;;;;606726;235;26577;-65
2022/09/03 07:40:09;;;;;;;6.37;1.98;;;17.40;73.90;;;;;;605834;235;26580;-65
2022/09/03 07:42:38;;;;;;;7.30;2.30;;;17.50;76.00;;;;;;606461;235;26633;-64
2022/09/03 07:45:09;;;;;;;8.52;2.55;;;17.50;75.10;;;;;;606591;235;26591;-65
2022/09/03 07:47:34;;;;;;;5.00;1.40;;;17.60;75.50;;;;;;605263;235;26594;-64
2022/09/03 07:50:01;;;;;;;3.10;1.60;;;17.80;73.90;;;;;;607508;235;26867;-65
2022/09/03 07:52:28;;;;;;;1.23;1.12;;;17.90;73.50;;;;;;608636;235;26670;-65
2022/09/03 07:54:55;;;;;;;1.17;1.02;;;18.10;71.10;;;;;;608576;234;27268;-65
2022/09/03 07:57:23;;;;;;;0.90;0.90;;;18.20;72.20;;;;;;609775;234;26633;-65
2022/09/03 07:59:50;;;;;;;0.73;0.70;;;18.30;74.10;;;;;;612685;234;26848;-65
2022/09/03 08:02:17;;;;;;;0.85;0.85;;;18.50;71.70;;;;;;608386;234;26643;-64
2022/09/03 08:04:45;;;;;;;0.73;0.60;;;19.00;70.10;;;;;;606029;235;27149;-65
2022/09/03 08:07:12;;;;;;;2.72;1.20;;;18.90;69.90;;;;;;609106;235;26579;-65
2022/09/03 08:09:40;;;;;;;0.88;0.88;;;19.40;72.50;;;;;;610213;235;26584;-65
2022/09/03 08:12:08;;;;;;;1.00;0.80;;;19.60;67.70;;;;;;610029;236;26615;-65
2022/09/03 08:14:36;;;;;;;1.70;1.15;;;19.50;68.90;;;;;;610042;235;26654;-65
2022/09/03 08:17:04;;;;;;;1.15;1.00;;;19.10;66.40;;;;;;609073;235;26654;-66
2022/09/03 08:19:31;;;;;;;1.33;0.98;;;19.10;66.30;;;;;;604521;238;26818;-66
2022/09/03 08:21:58;;;;;;;2.35;1.20;;;18.90;69.60;;;;;;608852;232;26647;-66
2022/09/03 08:24:26;;;;;;;0.60;0.60;;;18.80;68.10;;;;;;612534;234;27252;-66
2022/09/03 08:26:53;;;;;;;0.93;0.80;;;18.90;69.60;;;;;;612501;234;26561;-66
2022/09/03 08:29:20;;;;;;;5.20;1.70;;;19.10;67.00;;;;;;612450;234;26844;-65
2022/09/03 08:31:47;;;;;;;1.65;1.17;;;19.20;65.60;;;;;;612061;235;26684;-65
2022/09/03 08:34:16;;;;;;;1.92;1.02;;;19.20;67.00;;;;;;607699;234;26887;-65
2022/09/03 08:36:42;;;;;;;1.33;1.23;;;19.20;65.80;;;;;;612081;235;26600;-65
2022/09/03 08:39:09;;;;;;;3.10;1.30;;;19.00;68.70;;;;;;612741;234;26836;-65
2022/09/03 08:41:46;;;;;;;1.12;0.88;;;18.80;69.90;;;;;;612605;235;26630;-66
2022/09/03 08:44:36;;;;;;;1.42;1.30;;;18.60;70.70;;;;;;611625;235;26712;-65
2022/09/03 08:47:06;;;;;;;1.45;1.10;;;18.60;70.00;;;;;;610038;235;26665;-65
2022/09/03 08:49:58;;;;;;;1.90;1.33;;;18.40;71.00;;;;;;606694;235;27243;-65
2022/09/03 08:52:47;;;;;;;1.10;0.90;;;18.40;71.00;;;;;;609474;235;26909;-65
2022/09/03 08:55:26;;;;;;;1.60;1.00;;;18.40;70.00;;;;;;601129;235;26646;-65
2022/09/03 08:58:14;;;;;;;2.30;1.40;;;18.40;68.30;;;;;;606996;235;26646;-66
2022/09/03 09:01:00;;;;;;;0.90;0.90;;;18.40;68.30;;;;;;612206;234;26600;-66
2022/09/03 09:03:33;;;;;;;1.33;0.93;;;18.40;71.40;;;;;;606618;235;26871;-65
2022/09/03 09:06:24;;;;;;;2.10;1.17;;;18.50;70.30;;;;;;605090;235;26568;-64
2022/09/03 09:09:12;;;;;;;1.27;1.17;;;18.50;69.70;;;;;;604298;237;26664;-64
2022/09/03 09:11:50;;;;;;;0.85;0.82;;;18.60;68.90;;;;;;603551;237;26629;-64
2022/09/03 09:14:25;;;;;;;1.23;1.12;;;18.60;68.60;;;;;;606153;234;26563;-65
2022/09/03 09:16:55;;;;;;;2.40;1.20;;;18.70;72.30;;;;;;612715;235;26869;-65
2022/09/03 09:19:52;;;;;;;0.77;0.77;;;18.70;68.20;;;;;;612113;235;26653;-65
2022/09/03 09:22:35;;;;;;;1.00;0.88;;;18.80;72.00;;;;;;602441;235;26653;-65
2022/09/03 09:25:02;;;;;;;1.20;1.10;;;18.90;71.30;;;;;;611007;235;26563;-65
2022/09/03 09:27:29;;;;;;;1.77;0.80;;;19.00;68.70;;;;;;608370;235;26887;-65
2022/09/03 09:29:56;;;;;;;1.37;1.20;;;19.00;70.20;;;;;;605974;235;26583;-65
2022/09/03 09:32:23;;;;;;;0.93;0.93;;;19.10;70.30;;;;;;609277;235;27310;-65
2022/09/03 09:34:52;;;;;;;0.90;0.90;;;19.20;68.70;;;;;;605007;235;26579;-64
2022/09/03 09:37:18;;;;;;;1.67;1.10;;;19.30;67.40;;;;;;610794;235;27540;-65
2022/09/03 09:39:55;;;;;;;0.90;0.90;;;19.30;66.30;;;;;;612352;230;26589;-64
2022/09/03 09:42:22;;;;;;;1.08;1.00;;;19.30;66.60;;;;;;608829;235;26846;-66
2022/09/03 09:44:49;;;;;;;5.62;1.75;;;19.30;66.50;;;;;;611065;235;26597;-65
2022/09/03 09:47:20;;;;;;;1.92;1.40;;;19.40;67.40;;;;;;612382;234;26867;-65
2022/09/03 09:49:51;;;;;;;2.70;1.45;;;19.50;66.90;;;;;;604881;236;26575;-65
2022/09/03 09:52:20;;;;;;;3.08;1.40;;;19.50;64.10;;;;;;606123;235;26646;-65
2022/09/03 09:54:46;;;;;;;1.70;1.35;;;19.60;63.60;;;;;;612068;235;26651;-65
2022/09/03 09:57:17;;;;;;;1.77;1.67;;;19.60;62.20;;;;;;609630;235;27038;-65
2022/09/03 09:59:45;;;;;;;1.58;1.30;;;19.70;63.00;;;;;;611035;235;27313;-65
2022/09/03 10:02:12;;;;;;;0.80;0.80;;;19.70;63.00;;;;;;612169;230;26667;-65
2022/09/03 10:04:39;;;;;;;21.23;4.82;;;19.80;62.60;;;;;;606424;234;26889;-65
2022/09/03 10:07:14;;;;;;;4.40;1.45;;;19.90;62.10;;;;;;607238;236;26626;-66
2022/09/03 10:09:41;;;;;;;4.30;1.85;;;19.90;62.60;;;;;;603749;238;26587;-66
2022/09/03 10:12:13;;;;;;;12.75;3.00;;;20.00;61.90;;;;;;604257;237;26597;-66
2022/09/03 10:14:40;;;;;;;92.68;19.02;;;20.00;62.30;;;;;;604334;235;26574;-66
2022/09/03 10:17:14;;;;;;;78.55;14.73;;;20.10;65.60;;;;;;612234;232;26875;-66
2022/09/03 10:20:25;;;;;;;71.00;15.20;;;20.20;62.10;;;;;;613435;234;26588;-66
2022/09/03 10:22:12;;;;;;;51.15;11.15;;;20.20;59.10;;;;;;610522;234;26631;-66
2022/09/03 10:24:56;;;;;;;32.00;7.40;;;20.30;60.30;;;;;;605253;237;26547;-66
2022/09/03 10:27:24;;;;;;;47.40;10.60;;;20.40;61.10;;;;;;605431;237;26622;-66
2022/09/03 10:29:52;;;;;;;19.95;4.15;;;20.30;60.80;;;;;;605428;238;26620;-66
2022/09/03 10:32:21;;;;;;;18.42;4.22;;;20.40;60.00;;;;;;605491;235;26852;-66
2022/09/03 10:34:47;;;;;;;12.18;3.65;;;20.60;64.30;;;;;;605329;235;26648;-66
2022/09/03 10:37:21;;;;;;;9.00;2.60;;;20.60;63.50;;;;;;611909;235;26842;-66
2022/09/03 10:39:57;;;;;;;8.57;2.08;;;20.50;59.50;;;;;;612206;235;26580;-66
2022/09/03 10:42:29;;;;;;;4.78;1.92;;;20.60;56.60;;;;;;611635;235;26638;-66
2022/09/03 10:45:00;;;;;;;8.27;2.30;;;20.90;62.80;;;;;;612068;235;26592;-66
2022/09/03 10:47:35;;;;;;;1.70;1.52;;;20.90;63.20;;;;;;612323;235;26820;-66
2022/09/03 10:50:03;;;;;;;6.70;1.95;;;21.10;64.80;;;;;;611877;235;26662;-66
2022/09/03 10:52:34;;;;;;;1.58;1.33;;;21.60;56.70;;;;;;612027;235;26619;-66
2022/09/03 10:55:21;;;;;;;2.87;1.25;;;21.60;56.60;;;;;;611509;235;26641;-66
2022/09/03 10:57:48;;;;;;;1.33;1.20;;;22.10;57.90;;;;;;607226;235;26843;-65
2022/09/03 11:00:17;;;;;;;5.00;1.45;;;22.50;55.90;;;;;;611519;230;26642;-68
2022/09/03 11:03:01;;;;;;;4.78;1.50;;;22.50;59.30;;;;;;612065;235;26924;-68
2022/09/03 11:05:30;;;;;;;1.25;1.15;;;22.60;56.20;;;;;;610486;235;26643;-68
2022/09/03 11:07:58;;;;;;;3.55;1.30;;;22.80;56.30;;;;;;612004;235;26643;-68
2022/09/03 11:10:27;;;;;;;2.35;1.10;;;23.30;56.50;;;;;;611397;235;26636;-68
2022/09/03 11:13:08;;;;;;;2.58;1.40;;;23.20;56.80;;;;;;610182;234;26632;-68
2022/09/03 11:15:39;;;;;;;2.55;1.27;;;23.20;56.70;;;;;;609441;236;26609;-68
2022/09/03 11:18:24;;;;;;;2.05;1.45;;;23.40;56.80;;;;;;609799;236;27031;-68
2022/09/03 11:20:53;;;;;;;2.08;1.40;;;23.70;55.80;;;;;;606764;236;26616;-68
2022/09/03 11:23:19;;;;;;;2.10;1.30;;;24.10;52.40;;;;;;609500;236;26860;-69
2022/09/03 11:25:49;;;;;;;3.33;1.30;;;24.30;53.20;;;;;;609631;235;26585;-68
2022/09/03 11:28:31;;;;;;;2.95;1.30;;;24.30;51.30;;;;;;609727;235;26591;-68
2022/09/03 11:31:04;;;;;;;3.30;1.40;;;23.70;52.40;;;;;;604004;235;26668;-67
2022/09/03 11:33:32;;;;;;;1.33;1.20;;;23.70;52.10;;;;;;601752;239;26651;-68
2022/09/03 11:36:00;;;;;;;1.17;1.17;;;23.80;51.50;;;;;;602237;239;26965;-69
2022/09/03 11:38:29;;;;;;;1.95;1.40;;;24.10;53.60;;;;;;610639;234;26849;-66
2022/09/03 11:40:57;;;;;;;2.40;1.12;;;24.30;50.90;;;;;;612496;235;26646;-67
2022/09/03 11:43:27;;;;;;;2.53;1.12;;;24.60;52.50;;;;;;612701;235;26841;-67
2022/09/03 11:46:16;;;;;;;1.35;1.23;;;24.50;51.20;;;;;;612747;235;26640;-67
2022/09/03 11:48:44;;;;;;;1.17;1.08;;;24.50;49.70;;;;;;611106;235;27011;-67
2022/09/03 11:51:18;;;;;;;1.62;1.40;;;24.50;49.70;;;;;;612416;234;26793;-67
2022/09/03 11:53:52;;;;;;;1.20;1.10;;;24.30;50.80;;;;;;612407;234;26597;-66
2022/09/03 11:56:19;;;;;;;2.00;1.23;;;24.10;50.30;;;;;;612507;235;26588;-66
2022/09/03 11:58:47;;;;;;;2.75;1.50;;;24.00;52.20;;;;;;612459;235;26572;-66
2022/09/03 12:01:14;;;;;;;1.40;1.30;;;24.20;51.30;;;;;;611463;235;26942;-66
2022/09/03 12:03:46;;;;;;;1.98;1.40;;;24.00;52.30;;;;;;612449;235;26584;-67
2022/09/03 12:06:22;;;;;;;1.67;1.37;;;23.90;50.70;;;;;;611989;235;26871;-67
2022/09/03 12:09:01;;;;;;;1.00;0.95;;;23.90;49.70;;;;;;611538;235;26632;-67
2022/09/03 12:11:48;;;;;;;4.40;1.48;;;24.20;50.00;;;;;;611508;235;26925;-66
2022/09/03 12:14:19;;;;;;;1.83;1.17;;;24.30;50.50;;;;;;610562;235;26702;-66
2022/09/03 12:17:00;;;;;;;2.25;1.20;;;24.30;50.50;;;;;;612156;235;26631;-66
2022/09/03 12:19:44;;;;;;;1.77;1.30;;;24.10;50.90;;;;;;611545;235;26981;-66
2022/09/03 12:22:13;;;;;;;1.50;1.40;;;24.00;49.10;;;;;;610774;235;26665;-65
2022/09/03 12:24:41;;;;;;;2.05;1.25;;;23.90;50.40;;;;;;612143;235;26864;-66
2022/09/03 12:27:08;;;;;;;3.75;1.30;;;23.90;48.70;;;;;;612104;235;26640;-66
2022/09/03 12:29:36;;;;;;;1.83;1.42;;;24.20;49.50;;;;;;612051;230;26645;-66
2022/09/03 12:32:06;;;;;;;3.12;1.10;;;24.20;49.40;;;;;;612220;235;26665;-67
2022/09/03 12:34:33;;;;;;;1.67;1.33;;;24.30;50.30;;;;;;612299;234;26640;-66
2022/09/03 12:37:00;;;;;;;1.60;1.10;;;24.30;47.90;;;;;;612354;234;26632;-67
2022/09/03 12:39:28;;;;;;;1.40;1.25;;;24.40;47.80;;;;;;612242;234;26601;-67
2022/09/03 12:42:05;;;;;;;2.05;1.25;;;24.30;49.80;;;;;;613764;232;27303;-67
2022/09/03 12:44:41;;;;;;;1.65;1.55;;;24.50;47.30;;;;;;612841;234;26845;-67
2022/09/03 12:47:10;;;;;;;1.00;1.00;;;24.70;47.30;;;;;;611414;234;26945;-67
2022/09/03 12:49:39;;;;;;;1.15;1.05;;;25.20;46.80;;;;;;612730;234;26594;-67
2022/09/03 12:52:08;;;;;;;1.37;1.00;;;25.20;46.70;;;;;;610474;234;26958;-67
2022/09/03 12:54:35;;;;;;;1.70;1.20;;;25.40;46.20;;;;;;609605;234;26838;-67
2022/09/03 12:57:03;;;;;;;1.62;1.33;;;25.60;45.60;;;;;;609736;236;26569;-67
2022/09/03 12:59:30;;;;;;;1.30;1.20;;;25.70;46.70;;;;;;610076;236;27024;-66
2022/09/03 13:01:59;;;;;;;1.87;1.08;;;25.90;45.90;;;;;;609733;236;26683;-67
2022/09/03 13:04:27;;;;;;;0.80;0.80;;;25.60;45.50;;;;;;612196;235;26588;-67